In Rescue
 
Open Full Screen Window  High Contrast Mode
Wind Gusting 00 knots
04
July 24, 2024 5:18 PM CDT
Weather Information
Wind Direction
  080 °
Wind Speed
  04 kt (5 mph)
Wind Gust
  00 kt (0 mph)
Altimeter
30.18 in
Visibility
10 SM
Temperature
25° C
77° F
Dewpoint
15° C
59° F
Humidity
54%
1hr Rain Fall
00.00 in.
24hr Rain Fall
00.36 in.
Sky Condition
Scattered @ 3,800 ft
VFR

METAR KGYL 242218Z AUTO 08004KT 10SM SCT038 25/15 A3018 RMK AO2 T02510152

FAA Disclaimer: The data displayed is for advisory purposes only and is not to be used for flight planning or operations.